Time;durP1;ratioP1;P1;durP2;ratioP2;P2;SDS_P1;SDS_P2;PMS_P1;PMS_P2;Temp;Humidity;BMP_temperature;BMP_pressure;BME280_temperature;BME280_humidity;BME280_pressure;Samples;Min_cycle;Max_cycle;Signal;HPM_P1;HPM_P2
2023/04/20 00:01:52;;;;;;;1.48;0.55;;;8.30;81.70;;;;;;5035285;28;20046;-71
2023/04/20 00:04:21;;;;;;;6.28;1.38;;;8.30;81.90;;;;;;5032431;28;20044;-71
2023/04/20 00:06:50;;;;;;;2.35;0.68;;;8.30;82.10;;;;;;5038283;28;20471;-71
2023/04/20 00:09:16;;;;;;;4.80;1.08;;;8.20;82.20;;;;;;5031997;28;20363;-71
2023/04/20 00:11:42;;;;;;;3.13;0.47;;;8.20;81.60;;;;;;5033677;28;20570;-71
2023/04/20 00:14:07;;;;;;;2.42;0.60;;;8.20;82.70;;;;;;5029774;28;20032;-71
2023/04/20 00:16:39;;;;;;;4.47;0.77;;;8.20;82.90;;;;;;5033524;28;20962;-71
2023/04/20 00:19:06;;;;;;;1.95;1.02;;;8.20;82.30;;;;;;5029498;28;20037;-70
2023/04/20 00:21:32;;;;;;;1.60;0.60;;;8.20;82.60;;;;;;5027920;28;20029;-71
2023/04/20 00:24:01;;;;;;;2.50;0.77;;;8.10;84.20;;;;;;5030712;28;20039;-71
2023/04/20 00:26:33;;;;;;;3.38;0.77;;;8.10;84.00;;;;;;5031772;28;20590;-71
2023/04/20 00:28:58;;;;;;;2.67;0.90;;;8.10;84.50;;;;;;5026365;28;20045;-71
2023/04/20 00:31:24;;;;;;;5.90;0.90;;;8.00;84.30;;;;;;5031494;28;20481;-70
2023/04/20 00:33:49;;;;;;;1.75;0.52;;;7.90;85.30;;;;;;5031150;28;20725;-71
2023/04/20 00:36:15;;;;;;;4.43;0.73;;;7.90;84.70;;;;;;5027731;28;20038;-71
2023/04/20 00:38:41;;;;;;;5.63;0.73;;;7.90;85.10;;;;;;5029399;28;20073;-71
2023/04/20 00:41:06;;;;;;;2.83;0.88;;;7.80;85.30;;;;;;5031178;28;20098;-71
2023/04/20 00:43:54;;;;;;;6.45;1.10;;;7.80;85.10;;;;;;5034971;28;20041;-71
2023/04/20 00:46:21;;;;;;;2.40;0.75;;;7.80;85.90;;;;;;5030107;28;20037;-71
2023/04/20 00:48:48;;;;;;;2.95;0.80;;;7.70;85.80;;;;;;5037968;28;20069;-71
2023/04/20 00:51:21;;;;;;;8.18;1.10;;;7.70;86.30;;;;;;5025715;28;20037;-72
2023/04/20 00:53:47;;;;;;;3.22;0.70;;;7.60;86.50;;;;;;5036590;28;20045;-71
2023/04/20 00:56:13;;;;;;;3.00;0.70;;;7.60;86.20;;;;;;5035243;28;20041;-73
2023/04/20 00:58:45;;;;;;;4.97;1.17;;;7.60;86.50;;;;;;5038690;28;20037;-71
2023/04/20 01:01:14;;;;;;;1.45;0.63;;;7.60;86.90;;;;;;5031994;28;20033;-71
2023/04/20 01:03:39;;;;;;;3.38;0.88;;;7.60;86.70;;;;;;5034083;28;20029;-71
2023/04/20 01:06:08;;;;;;;2.22;1.02;;;7.50;87.40;;;;;;5033426;28;20578;-71
2023/04/20 01:08:34;;;;;;;1.85;0.75;;;7.50;87.20;;;;;;5034003;28;20060;-72
2023/04/20 01:11:08;;;;;;;1.98;0.88;;;7.50;87.30;;;;;;5030847;28;20508;-71
2023/04/20 01:13:34;;;;;;;2.53;0.68;;;7.40;87.80;;;;;;5034207;28;20061;-72
2023/04/20 01:16:00;;;;;;;2.03;0.80;;;7.40;88.90;;;;;;5032593;28;20536;-71
2023/04/20 01:18:45;;;;;;;1.75;1.10;;;7.40;88.00;;;;;;5033633;28;20029;-72
2023/04/20 01:21:12;;;;;;;4.45;1.20;;;7.50;88.30;;;;;;5033903;28;20029;-71
2023/04/20 01:23:37;;;;;;;1.98;0.73;;;7.50;88.00;;;;;;5036055;28;20493;-72
2023/04/20 01:26:22;;;;;;;3.35;0.95;;;7.60;88.80;;;;;;5029531;28;20060;-71
2023/04/20 01:28:51;;;;;;;4.00;1.05;;;7.60;89.20;;;;;;5031605;28;20041;-71
2023/04/20 01:31:17;;;;;;;2.47;1.02;;;7.70;89.10;;;;;;5040890;28;20025;-71
2023/04/20 01:33:42;;;;;;;4.25;0.80;;;7.80;89.20;;;;;;5031764;28;20040;-71
2023/04/20 01:36:09;;;;;;;2.50;0.77;;;7.80;89.70;;;;;;5031426;28;20033;-71
2023/04/20 01:38:36;;;;;;;2.53;0.82;;;7.80;89.40;;;;;;5031496;28;20136;-71
2023/04/20 01:41:06;;;;;;;5.97;1.02;;;7.80;90.10;;;;;;5033932;28;20497;-71
2023/04/20 01:43:33;;;;;;;1.90;1.05;;;7.80;90.10;;;;;;5026857;28;20026;-71
2023/04/20 01:45:59;;;;;;;3.70;1.80;;;7.80;90.10;;;;;;5033185;28;20029;-71
2023/04/20 01:48:28;;;;;;;2.92;1.00;;;7.80;90.40;;;;;;5037284;28;20102;-71
2023/04/20 01:50:53;;;;;;;1.95;0.88;;;7.80;90.60;;;;;;5033732;28;20563;-71
2023/04/20 01:53:19;;;;;;;2.40;1.10;;;7.80;90.70;;;;;;5034210;28;20029;-72
2023/04/20 01:55:45;;;;;;;10.23;1.10;;;7.80;90.90;;;;;;5034898;28;20115;-72
2023/04/20 01:58:10;;;;;;;1.83;1.08;;;7.80;91.20;;;;;;5029053;28;20061;-71
2023/04/20 02:00:39;;;;;;;2.53;0.90;;;7.80;91.20;;;;;;5034259;28;20037;-72
2023/04/20 02:03:11;;;;;;;3.17;0.85;;;7.90;91.30;;;;;;5033291;28;20758;-71
2023/04/20 02:05:37;;;;;;;1.88;0.93;;;7.80;91.50;;;;;;5030977;28;20034;-71
2023/04/20 02:08:05;;;;;;;4.05;0.90;;;7.80;91.80;;;;;;5034728;28;20044;-71
2023/04/20 02:10:31;;;;;;;1.80;0.75;;;7.80;91.80;;;;;;5032290;28;20051;-72
2023/04/20 02:12:56;;;;;;;5.35;1.00;;;7.80;92.10;;;;;;5030807;28;20543;-71
2023/04/20 02:15:22;;;;;;;2.85;0.90;;;7.70;92.50;;;;;;5034738;28;20064;-71
2023/04/20 02:17:51;;;;;;;2.00;0.90;;;7.70;92.90;;;;;;5031308;28;20034;-71
2023/04/20 02:20:18;;;;;;;1.80;0.80;;;7.70;92.90;;;;;;5029535;28;20126;-71
2023/04/20 02:22:52;;;;;;;6.50;1.10;;;7.80;93.30;;;;;;5032674;28;20041;-72
2023/04/20 02:25:19;;;;;;;2.58;1.10;;;7.80;93.50;;;;;;5034086;28;20045;-73
2023/04/20 02:27:54;;;;;;;3.88;1.08;;;7.80;93.50;;;;;;5028035;28;20057;-71
2023/04/20 02:30:20;;;;;;;3.85;1.58;;;7.80;93.60;;;;;;5033373;28;20647;-72
2023/04/20 02:32:46;;;;;;;2.03;0.90;;;7.90;93.80;;;;;;5031729;28;20049;-71
2023/04/20 02:35:15;;;;;;;2.03;0.60;;;7.90;94.00;;;;;;5033741;28;20740;-71
2023/04/20 02:37:50;;;;;;;2.97;0.95;;;7.90;94.10;;;;;;5062130;28;20025;-70
2023/04/20 02:40:15;;;;;;;2.88;0.75;;;8.00;94.10;;;;;;5035961;28;20180;-70
2023/04/20 02:42:41;;;;;;;1.88;0.70;;;8.10;94.20;;;;;;5034779;28;20132;-70
2023/04/20 02:45:10;;;;;;;2.15;0.80;;;8.10;94.10;;;;;;5033786;28;20032;-70
2023/04/20 02:47:38;;;;;;;1.55;0.82;;;8.10;94.20;;;;;;5028087;28;20037;-71
2023/04/20 02:50:05;;;;;;;2.55;0.93;;;8.20;94.50;;;;;;5039643;28;20034;-70
2023/04/20 02:52:30;;;;;;;3.85;0.73;;;8.20;94.60;;;;;;5031349;28;20036;-71
2023/04/20 02:54:56;;;;;;;2.90;1.25;;;8.20;94.40;;;;;;5032568;28;20038;-70
2023/04/20 02:57:24;;;;;;;1.90;1.00;;;8.20;94.50;;;;;;5033037;28;20045;-70
2023/04/20 02:59:53;;;;;;;5.65;0.93;;;8.10;94.60;;;;;;5028329;28;20037;-70
2023/04/20 03:02:18;;;;;;;1.88;1.08;;;8.10;94.80;;;;;;5032803;28;20038;-71
2023/04/20 03:04:44;;;;;;;3.97;0.70;;;8.10;94.90;;;;;;5034019;28;20126;-70
2023/04/20 03:07:10;;;;;;;3.17;0.95;;;8.10;95.00;;;;;;5032979;28;22101;-71
2023/04/20 03:09:36;;;;;;;2.67;1.05;;;8.10;95.00;;;;;;5027971;28;20048;-71
2023/04/20 03:12:05;;;;;;;3.92;1.00;;;8.10;94.80;;;;;;5033432;28;20517;-70
2023/04/20 03:14:31;;;;;;;6.82;1.20;;;8.20;94.50;;;;;;5031579;28;20045;-71
2023/04/20 03:16:56;;;;;;;2.80;1.00;;;8.30;94.60;;;;;;5028753;28;20087;-70
2023/04/20 03:19:25;;;;;;;1.40;0.75;;;8.30;94.50;;;;;;5033614;28;20082;-71
2023/04/20 03:21:56;;;;;;;6.78;1.15;;;8.50;94.20;;;;;;5029809;28;20033;-70
2023/04/20 03:24:22;;;;;;;2.38;0.80;;;8.50;94.20;;;;;;5036701;28;20132;-71
2023/04/20 03:27:00;;;;;;;3.58;0.77;;;8.50;94.10;;;;;;5032517;28;20120;-70
2023/04/20 03:29:26;;;;;;;1.50;0.65;;;8.60;94.30;;;;;;5032041;28;20048;-71
2023/04/20 03:31:51;;;;;;;2.90;0.88;;;8.70;94.00;;;;;;5032366;28;20041;-70
2023/04/20 03:34:26;;;;;;;1.05;0.60;;;8.70;94.20;;;;;;5032385;28;20050;-71
2023/04/20 03:36:52;;;;;;;2.05;1.00;;;8.70;94.10;;;;;;5032803;28;20757;-70
2023/04/20 03:39:20;;;;;;;2.78;0.82;;;8.70;94.00;;;;;;5035611;28;20038;-71
2023/04/20 03:41:56;;;;;;;1.55;0.93;;;8.80;94.20;;;;;;5036501;28;20029;-70
2023/04/20 03:44:22;;;;;;;5.05;1.05;;;8.80;94.40;;;;;;5036810;28;20025;-70
2023/04/20 03:46:53;;;;;;;2.80;1.30;;;8.80;94.40;;;;;;5033198;28;20045;-70
2023/04/20 03:49:24;;;;;;;2.15;0.60;;;8.80;94.70;;;;;;5042101;28;20107;-70
2023/04/20 03:51:49;;;;;;;2.58;1.02;;;8.80;94.70;;;;;;5036177;28;20048;-70
2023/04/20 03:54:21;;;;;;;4.32;0.73;;;8.80;94.80;;;;;;5034109;28;20117;-70
2023/04/20 03:56:48;;;;;;;5.30;1.38;;;8.90;95.10;;;;;;5030137;28;20033;-70
2023/04/20 03:59:14;;;;;;;2.20;0.70;;;8.90;95.30;;;;;;5034370;28;20033;-75
2023/04/20 04:01:41;;;;;;;3.42;0.50;;;8.90;95.60;;;;;;5031303;28;20789;-70
2023/04/20 04:04:12;;;;;;;2.83;0.70;;;8.90;95.90;;;;;;5031823;28;20536;-71
2023/04/20 04:06:38;;;;;;;3.15;1.13;;;8.80;96.20;;;;;;5035621;28;20517;-71
2023/04/20 04:09:04;;;;;;;4.45;0.77;;;8.80;96.50;;;;;;5027393;28;20045;-71
2023/04/20 04:11:32;;;;;;;3.05;0.95;;;8.90;97.00;;;;;;5028387;28;20056;-71
2023/04/20 04:13:58;;;;;;;2.35;1.15;;;8.90;97.40;;;;;;5034148;28;20033;-70
2023/04/20 04:16:26;;;;;;;2.38;0.73;;;9.00;97.60;;;;;;5035547;28;20029;-71
2023/04/20 04:19:04;;;;;;;3.65;0.93;;;8.90;97.80;;;;;;5066394;28;20044;-70
2023/04/20 04:21:30;;;;;;;2.85;1.33;;;8.90;98.40;;;;;;5038408;28;20057;-71
2023/04/20 04:23:58;;;;;;;4.85;1.27;;;8.90;98.50;;;;;;5034855;28;20065;-71
2023/04/20 04:26:30;;;;;;;6.07;0.70;;;8.90;99.10;;;;;;5038441;28;20057;-71
2023/04/20 04:28:56;;;;;;;3.08;0.70;;;8.90;99.50;;;;;;5034961;28;20041;-71
2023/04/20 04:31:23;;;;;;;3.20;0.75;;;8.90;99.70;;;;;;5039767;28;20714;-71
2023/04/20 04:33:51;;;;;;;7.35;1.08;;;9.00;99.90;;;;;;5034893;28;20060;-71
2023/04/20 04:36:25;;;;;;;4.00;0.63;;;9.00;99.90;;;;;;5036236;28;20091;-71
2023/04/20 04:38:51;;;;;;;8.30;2.10;;;9.00;99.90;;;;;;5029661;28;20127;-71
2023/04/20 04:41:17;;;;;;;2.83;0.80;;;9.00;99.90;;;;;;5033200;28;20424;-70
2023/04/20 04:43:43;;;;;;;3.80;1.02;;;9.00;99.90;;;;;;5036842;28;20079;-71
2023/04/20 04:46:09;;;;;;;5.20;1.02;;;9.00;99.90;;;;;;5032403;28;20026;-70
2023/04/20 04:48:36;;;;;;;2.20;0.65;;;9.00;99.90;;;;;;5042023;28;20479;-72
2023/04/20 04:51:02;;;;;;;8.55;0.68;;;9.00;99.90;;;;;;5031382;28;20807;-71
2023/04/20 04:53:34;;;;;;;1.85;0.70;;;9.00;99.90;;;;;;5034427;28;20042;-76
2023/04/20 04:56:03;;;;;;;4.82;1.15;;;9.10;99.90;;;;;;5029075;28;20393;-70
2023/04/20 04:58:29;;;;;;;3.10;0.65;;;9.20;99.90;;;;;;5036684;28;20116;-72
2023/04/20 05:00:55;;;;;;;4.53;0.80;;;9.10;99.90;;;;;;5034273;28;20041;-72
2023/04/20 05:03:21;;;;;;;5.22;0.68;;;9.10;99.90;;;;;;5043798;28;20033;-69
2023/04/20 05:05:46;;;;;;;4.18;1.00;;;9.20;99.90;;;;;;5042953;28;20031;-69
2023/04/20 05:08:12;;;;;;;12.57;0.80;;;9.20;99.90;;;;;;5037686;28;20107;-71
2023/04/20 05:10:43;;;;;;;4.13;0.70;;;9.30;99.70;;;;;;5032875;28;20100;-71
2023/04/20 05:13:09;;;;;;;9.43;1.15;;;9.20;99.90;;;;;;5039095;28;20627;-72
2023/04/20 05:15:34;;;;;;;7.20;1.10;;;9.20;99.90;;;;;;5036402;28;20090;-72
2023/04/20 05:18:01;;;;;;;3.58;0.52;;;9.20;99.80;;;;;;5037240;28;20414;-70
2023/04/20 05:20:26;;;;;;;3.35;0.60;;;9.20;99.70;;;;;;5038555;28;20052;-69
2023/04/20 05:22:52;;;;;;;1.85;0.65;;;9.30;98.60;;;;;;5041416;28;20021;-69
2023/04/20 05:25:17;;;;;;;4.57;0.80;;;9.30;97.50;;;;;;5044132;28;21473;-72
2023/04/20 05:27:43;;;;;;;0.85;0.40;;;9.20;97.60;;;;;;5041795;28;20029;-71
2023/04/20 05:30:09;;;;;;;2.05;0.57;;;9.30;96.90;;;;;;5038895;28;20069;-69
2023/04/20 05:32:35;;;;;;;2.17;0.68;;;9.20;96.90;;;;;;5041806;28;20488;-70
2023/04/20 05:35:00;;;;;;;0.98;0.60;;;9.20;96.50;;;;;;5040926;28;20111;-70
2023/04/20 05:37:26;;;;;;;11.15;1.20;;;9.10;96.80;;;;;;5042454;28;20121;-70
2023/04/20 05:39:52;;;;;;;1.70;0.60;;;9.10;97.10;;;;;;5039235;28;20037;-71
2023/04/20 05:42:17;;;;;;;4.80;0.68;;;9.00;97.30;;;;;;5041858;28;20051;-70
2023/04/20 05:44:43;;;;;;;5.70;1.20;;;9.00;97.50;;;;;;5041646;28;20060;-69
2023/04/20 05:47:11;;;;;;;3.35;0.90;;;9.00;97.50;;;;;;5040669;28;20021;-69
2023/04/20 05:49:37;;;;;;;5.68;0.93;;;9.00;97.50;;;;;;5047203;28;20033;-70
2023/04/20 05:52:09;;;;;;;2.90;0.65;;;9.00;97.70;;;;;;5038264;28;20033;-71
2023/04/20 05:54:34;;;;;;;2.22;0.73;;;9.00;97.90;;;;;;5035085;28;20140;-69
2023/04/20 05:57:00;;;;;;;2.83;0.88;;;9.00;97.70;;;;;;5039502;28;20552;-72
2023/04/20 05:59:26;;;;;;;3.25;1.00;;;9.00;97.60;;;;;;5038896;28;20370;-69
2023/04/20 06:01:51;;;;;;;3.47;1.10;;;9.00;98.00;;;;;;5037353;28;20042;-71
2023/04/20 06:04:17;;;;;;;4.60;0.77;;;9.00;97.80;;;;;;5040778;28;20537;-70
2023/04/20 06:06:43;;;;;;;2.35;0.63;;;9.00;97.60;;;;;;5040255;28;20025;-69
2023/04/20 06:09:09;;;;;;;3.80;0.80;;;9.00;97.60;;;;;;5043120;28;20131;-70
2023/04/20 06:11:34;;;;;;;4.03;0.82;;;9.00;97.20;;;;;;5039332;28;20133;-70
2023/04/20 06:14:00;;;;;;;3.42;0.95;;;9.00;97.30;;;;;;5043673;28;20033;-71
2023/04/20 06:16:26;;;;;;;4.95;0.82;;;9.00;97.40;;;;;;5036742;28;20044;-72
2023/04/20 06:18:51;;;;;;;1.73;0.60;;;9.00;97.40;;;;;;5042289;28;20036;-70
2023/04/20 06:21:18;;;;;;;3.45;0.93;;;9.10;97.30;;;;;;5042914;28;20041;-71
2023/04/20 06:23:43;;;;;;;2.50;0.85;;;9.10;97.60;;;;;;5040309;28;20029;-69
2023/04/20 06:26:10;;;;;;;2.00;0.70;;;9.10;97.70;;;;;;5044442;28;20489;-71
2023/04/20 06:28:36;;;;;;;1.50;0.75;;;9.10;97.70;;;;;;5040134;28;20055;-71
2023/04/20 06:31:03;;;;;;;6.85;0.95;;;9.20;98.20;;;;;;5044132;28;20033;-73
2023/04/20 06:33:28;;;;;;;3.60;0.95;;;9.20;98.10;;;;;;5040686;28;20025;-70
2023/04/20 06:35:55;;;;;;;7.30;1.20;;;9.20;98.20;;;;;;5040807;28;20033;-70
2023/04/20 06:38:22;;;;;;;3.03;1.10;;;9.20;98.50;;;;;;5041408;28;20771;-70
2023/04/20 06:40:48;;;;;;;1.48;0.60;;;9.20;98.60;;;;;;5036420;28;21762;-69
2023/04/20 06:43:14;;;;;;;1.90;0.95;;;9.20;98.50;;;;;;5037980;28;20114;-70
2023/04/20 06:45:39;;;;;;;8.15;1.75;;;9.00;98.60;;;;;;5041958;28;20029;-71
2023/04/20 06:48:05;;;;;;;2.55;0.85;;;9.00;98.70;;;;;;5039996;28;20638;-70
2023/04/20 06:50:31;;;;;;;2.83;0.90;;;9.00;99.10;;;;;;5037054;28;20617;-69
2023/04/20 06:52:56;;;;;;;6.88;1.30;;;9.00;99.20;;;;;;5040347;28;20124;-69
2023/04/20 06:55:22;;;;;;;2.20;1.10;;;8.80;99.50;;;;;;5035838;28;20036;-70
2023/04/20 06:57:48;;;;;;;3.45;0.98;;;8.80;99.90;;;;;;5039728;28;20140;-70
2023/04/20 07:00:14;;;;;;;1.83;0.75;;;8.80;99.90;;;;;;5037304;28;20194;-71
2023/04/20 07:02:50;;;;;;;3.35;1.00;;;8.60;99.90;;;;;;5036220;28;20139;-69
2023/04/20 07:05:16;;;;;;;4.47;1.33;;;8.50;99.90;;;;;;5039918;28;20065;-69
2023/04/20 07:07:45;;;;;;;4.50;0.88;;;8.30;99.90;;;;;;5039921;28;20120;-71
2023/04/20 07:10:12;;;;;;;4.28;1.20;;;8.10;99.90;;;;;;5044541;28;20485;-70
2023/04/20 07:12:39;;;;;;;2.28;0.70;;;8.00;99.90;;;;;;5040686;28;20123;-69
2023/04/20 07:15:06;;;;;;;2.10;1.17;;;7.90;99.90;;;;;;5039211;28;20083;-71
2023/04/20 07:17:37;;;;;;;6.03;1.30;;;7.80;99.90;;;;;;5039892;28;20057;-70
2023/04/20 07:20:07;;;;;;;3.75;1.25;;;7.70;99.90;;;;;;5042020;28;20124;-70
2023/04/20 07:22:51;;;;;;;7.95;1.98;;;7.70;99.90;;;;;;5036409;28;20033;-70
2023/04/20 07:25:17;;;;;;;5.93;1.15;;;7.50;99.90;;;;;;5035820;28;20083;-70
2023/04/20 07:27:42;;;;;;;5.55;1.38;;;7.40;99.90;;;;;;5042978;28;20592;-71
2023/04/20 07:30:09;;;;;;;4.38;1.52;;;7.30;99.90;;;;;;5042647;28;20482;-69
2023/04/20 07:32:36;;;;;;;3.42;1.05;;;7.20;99.90;;;;;;5038678;28;20396;-70
2023/04/20 07:35:02;;;;;;;4.40;1.80;;;7.30;99.90;;;;;;5037831;28;20052;-69
2023/04/20 07:37:28;;;;;;;2.13;1.08;;;7.30;99.90;;;;;;5041298;28;20025;-71
2023/04/20 07:39:56;;;;;;;1.67;0.80;;;7.40;99.90;;;;;;5037175;28;20062;-70
2023/04/20 07:42:22;;;;;;;2.10;0.98;;;7.40;99.90;;;;;;5035880;28;20037;-69
2023/04/20 07:44:48;;;;;;;8.20;1.23;;;7.40;99.90;;;;;;5037726;28;22134;-71
2023/04/20 07:47:14;;;;;;;7.78;1.25;;;7.40;99.90;;;;;;5041091;28;20035;-71
2023/04/20 07:49:43;;;;;;;3.58;1.10;;;7.40;99.90;;;;;;5037534;28;20404;-70
2023/04/20 07:52:09;;;;;;;4.03;1.10;;;7.50;99.90;;;;;;5035053;28;20119;-71
2023/04/20 07:54:34;;;;;;;4.03;1.15;;;7.40;99.90;;;;;;5045695;28;20056;-70
2023/04/20 07:57:03;;;;;;;3.17;1.63;;;7.40;99.90;;;;;;5042128;28;20570;-69
2023/04/20 07:59:29;;;;;;;5.38;1.10;;;7.50;99.90;;;;;;5039133;28;20033;-69
2023/04/20 08:02:02;;;;;;;3.05;1.42;;;7.40;99.90;;;;;;5042736;28;20039;-70
2023/04/20 08:04:28;;;;;;;1.98;0.75;;;7.40;99.90;;;;;;5040554;28;20130;-69
2023/04/20 08:06:54;;;;;;;3.83;1.38;;;7.40;99.90;;;;;;5043357;28;20078;-70
2023/04/20 08:09:19;;;;;;;5.60;1.80;;;7.40;99.90;;;;;;5042997;28;20041;-70
2023/04/20 08:11:45;;;;;;;8.02;1.65;;;7.40;99.90;;;;;;5044912;28;20030;-71
2023/04/20 08:14:17;;;;;;;2.67;1.15;;;7.40;99.90;;;;;;5044400;28;20071;-70
2023/04/20 08:16:52;;;;;;;2.15;0.98;;;7.40;99.90;;;;;;5043652;28;20033;-72
2023/04/20 08:19:20;;;;;;;5.43;1.20;;;7.30;99.90;;;;;;5045067;28;20048;-69
2023/04/20 08:21:46;;;;;;;5.40;1.20;;;7.30;99.90;;;;;;5044430;28;20037;-69
2023/04/20 08:24:12;;;;;;;3.45;1.65;;;7.30;99.90;;;;;;5043338;28;20127;-70
2023/04/20 08:26:38;;;;;;;3.30;1.30;;;7.40;99.90;;;;;;5044237;28;20029;-70
2023/04/20 08:29:04;;;;;;;3.58;1.40;;;7.40;99.90;;;;;;5043100;28;20044;-70
2023/04/20 08:31:30;;;;;;;2.55;1.27;;;7.30;99.90;;;;;;5041017;28;20633;-70
2023/04/20 08:33:56;;;;;;;4.97;1.77;;;7.30;99.90;;;;;;5044353;28;20036;-72
2023/04/20 08:36:21;;;;;;;6.72;1.63;;;7.30;99.90;;;;;;5047298;28;20048;-68
2023/04/20 08:38:56;;;;;;;3.65;1.70;;;7.30;99.90;;;;;;5044413;28;20052;-70
2023/04/20 08:41:23;;;;;;;4.18;1.38;;;7.30;99.90;;;;;;5044625;28;20104;-69
2023/04/20 08:43:49;;;;;;;7.28;1.50;;;7.30;99.90;;;;;;5044309;28;21518;-71
2023/04/20 08:46:16;;;;;;;8.27;1.40;;;7.40;99.90;;;;;;5041509;28;20033;-70
2023/04/20 08:48:44;;;;;;;3.08;1.60;;;7.40;99.90;;;;;;5044351;28;20036;-70
2023/04/20 08:51:11;;;;;;;4.45;1.52;;;7.40;99.90;;;;;;5038958;28;20022;-70
2023/04/20 08:53:36;;;;;;;3.40;1.30;;;7.50;99.90;;;;;;5042675;28;20037;-69
2023/04/20 08:56:02;;;;;;;3.72;1.35;;;7.50;99.90;;;;;;5045914;28;20492;-70
2023/04/20 08:58:31;;;;;;;4.03;1.50;;;7.60;99.90;;;;;;5042811;28;20524;-69
2023/04/20 09:00:59;;;;;;;6.32;1.77;;;7.70;99.90;;;;;;5039338;28;20664;-69
2023/04/20 09:03:41;;;;;;;4.15;1.40;;;7.80;99.90;;;;;;5040857;28;20033;-69
2023/04/20 09:06:15;;;;;;;3.75;1.50;;;7.80;99.90;;;;;;5045256;28;20871;-69
2023/04/20 09:08:44;;;;;;;3.97;1.10;;;7.90;99.90;;;;;;5040502;28;20036;-70
2023/04/20 09:11:22;;;;;;;4.70;1.50;;;7.90;99.90;;;;;;5039348;28;20047;-70
2023/04/20 09:14:05;;;;;;;2.92;1.40;;;7.80;99.90;;;;;;5039833;28;20538;-70
2023/04/20 09:16:33;;;;;;;6.82;1.20;;;7.80;99.90;;;;;;5044958;28;20025;-69
2023/04/20 09:18:59;;;;;;;6.35;1.63;;;7.80;99.90;;;;;;5045051;28;20086;-70
2023/04/20 09:21:27;;;;;;;2.20;1.08;;;7.70;99.90;;;;;;5037785;28;20838;-69
2023/04/20 09:24:00;;;;;;;3.08;1.42;;;7.80;99.90;;;;;;5046017;28;20044;-70
2023/04/20 09:26:30;;;;;;;2.47;1.00;;;7.90;99.90;;;;;;5042033;28;20041;-71
2023/04/20 09:28:55;;;;;;;2.88;1.70;;;8.00;99.90;;;;;;5046450;28;20037;-70
2023/04/20 09:31:22;;;;;;;2.25;1.15;;;8.00;99.90;;;;;;5043204;28;20049;-70
2023/04/20 09:34:03;;;;;;;2.97;1.65;;;8.10;99.90;;;;;;5038607;28;20041;-71
2023/04/20 09:36:40;;;;;;;6.47;3.08;;;8.40;99.90;;;;;;5040219;28;20045;-72
2023/04/20 09:39:10;;;;;;;3.10;1.33;;;8.70;99.90;;;;;;5041676;28;20044;-70
2023/04/20 09:41:36;;;;;;;3.58;1.67;;;9.00;99.90;;;;;;5040894;28;20049;-69
2023/04/20 09:44:03;;;;;;;6.13;1.30;;;9.10;99.90;;;;;;5043132;28;20706;-70
2023/04/20 09:46:33;;;;;;;3.55;1.42;;;9.20;99.90;;;;;;5041687;28;20037;-69
2023/04/20 09:49:00;;;;;;;4.55;1.00;;;9.40;99.90;;;;;;5041303;28;20075;-71
2023/04/20 09:51:26;;;;;;;4.82;1.10;;;9.60;99.90;;;;;;5040858;28;20040;-69
2023/04/20 09:53:57;;;;;;;4.40;1.50;;;9.60;99.90;;;;;;5042005;28;20025;-69
2023/04/20 09:56:23;;;;;;;5.82;1.20;;;9.40;99.90;;;;;;5037065;28;20039;-69
2023/04/20 09:58:51;;;;;;;6.05;1.50;;;9.50;99.90;;;;;;5031292;28;20493;-69
2023/04/20 10:01:17;;;;;;;5.38;1.42;;;9.50;99.90;;;;;;5040115;28;20137;-69
2023/04/20 10:03:43;;;;;;;2.75;1.50;;;9.70;99.90;;;;;;5040981;28;20041;-68
2023/04/20 10:06:23;;;;;;;4.97;1.38;;;9.60;99.90;;;;;;5042297;28;20590;-70
2023/04/20 10:08:50;;;;;;;3.73;1.47;;;9.60;99.90;;;;;;5035728;28;20053;-70
2023/04/20 10:11:42;;;;;;;2.58;1.40;;;9.60;99.90;;;;;;5034707;28;20345;-71
2023/04/20 10:14:16;;;;;;;2.95;1.58;;;9.80;99.90;;;;;;5033704;28;20128;-70
2023/04/20 10:16:56;;;;;;;3.30;1.63;;;9.80;99.90;;;;;;5035861;28;20524;-69
2023/04/20 10:19:22;;;;;;;3.85;1.33;;;9.80;99.90;;;;;;5038837;28;20029;-70
2023/04/20 10:21:51;;;;;;;4.38;1.40;;;9.80;99.90;;;;;;5041450;28;20112;-69
2023/04/20 10:24:30;;;;;;;4.68;1.90;;;9.80;99.90;;;;;;5038649;28;20060;-71
2023/04/20 10:26:57;;;;;;;2.75;1.50;;;9.90;99.90;;;;;;5035314;28;20048;-73
2023/04/20 10:29:27;;;;;;;2.92;1.30;;;9.90;99.90;;;;;;5039147;28;20803;-70
2023/04/20 10:31:53;;;;;;;5.10;1.30;;;9.90;99.90;;;;;;5037630;28;20033;-70
2023/04/20 10:34:32;;;;;;;5.68;1.55;;;10.20;99.90;;;;;;5038244;28;20429;-70
2023/04/20 10:37:12;;;;;;;4.50;1.60;;;10.40;99.90;;;;;;5035501;28;20131;-72
2023/04/20 10:39:45;;;;;;;6.30;1.17;;;10.60;99.90;;;;;;5037992;28;20098;-71
2023/04/20 10:42:10;;;;;;;6.93;1.88;;;10.90;99.90;;;;;;5039308;28;20032;-69
2023/04/20 10:44:48;;;;;;;2.42;1.45;;;10.90;99.90;;;;;;5035569;28;20045;-70
2023/04/20 10:47:15;;;;;;;3.42;2.17;;;10.70;99.90;;;;;;5040169;28;20657;-69
2023/04/20 10:49:40;;;;;;;3.53;1.60;;;10.40;99.90;;;;;;5036408;28;20207;-68
2023/04/20 10:52:06;;;;;;;4.30;1.77;;;10.30;99.90;;;;;;5039731;28;20044;-70
2023/04/20 10:54:39;;;;;;;3.33;1.50;;;10.20;99.90;;;;;;5036378;28;20554;-70
2023/04/20 10:57:15;;;;;;;2.70;1.50;;;10.10;99.90;;;;;;5038822;28;20041;-70
2023/04/20 10:59:40;;;;;;;3.38;1.60;;;9.90;99.90;;;;;;5036662;28;20041;-70
2023/04/20 11:02:11;;;;;;;3.88;1.63;;;10.00;99.90;;;;;;5038699;28;20697;-70
2023/04/20 11:04:37;;;;;;;3.58;1.90;;;10.30;99.90;;;;;;5031777;28;20083;-70
2023/04/20 11:07:07;;;;;;;5.22;1.98;;;10.60;99.90;;;;;;5038145;28;20029;-70
2023/04/20 11:09:33;;;;;;;4.78;1.52;;;10.70;99.90;;;;;;5039788;28;20037;-71
2023/04/20 11:12:11;;;;;;;5.60;2.00;;;10.80;99.90;;;;;;5038830;28;20036;-72
2023/04/20 11:14:49;;;;;;;5.47;1.60;;;10.70;99.90;;;;;;5030162;28;20071;-71
2023/04/20 11:17:14;;;;;;;4.03;1.52;;;10.70;99.90;;;;;;5035550;28;20104;-69
2023/04/20 11:19:40;;;;;;;3.47;1.73;;;10.70;99.90;;;;;;5035942;28;20127;-69
2023/04/20 11:22:06;;;;;;;4.93;2.15;;;10.60;99.90;;;;;;5039787;28;20076;-70
2023/04/20 11:24:32;;;;;;;7.13;1.98;;;10.60;99.90;;;;;;5037007;28;20389;-69
2023/04/20 11:27:00;;;;;;;6.18;2.33;;;10.60;99.90;;;;;;5038217;28;20063;-71
2023/04/20 11:29:30;;;;;;;5.15;1.70;;;10.80;99.90;;;;;;5037516;28;20063;-71
2023/04/20 11:31:57;;;;;;;5.22;2.03;;;10.90;99.90;;;;;;5040930;28;20055;-70
2023/04/20 11:34:23;;;;;;;5.60;1.77;;;11.10;99.90;;;;;;5038787;28;20768;-70
2023/04/20 11:36:55;;;;;;;3.33;1.70;;;11.20;99.90;;;;;;5039891;28;20097;-69
2023/04/20 11:39:28;;;;;;;3.03;1.25;;;11.10;99.90;;;;;;5039951;28;20527;-71
2023/04/20 11:41:56;;;;;;;3.53;1.73;;;11.10;99.90;;;;;;5040909;28;20037;-70
2023/04/20 11:44:22;;;;;;;3.80;1.60;;;11.30;99.90;;;;;;5040621;28;20060;-70
2023/04/20 11:46:49;;;;;;;4.70;1.30;;;11.40;99.90;;;;;;5036640;28;20772;-70
2023/04/20 11:49:19;;;;;;;3.78;1.98;;;11.40;99.90;;;;;;5041699;28;20039;-70
2023/04/20 11:51:45;;;;;;;7.07;1.63;;;11.40;99.90;;;;;;5034976;28;20032;-70
2023/04/20 11:54:12;;;;;;;3.50;1.50;;;11.40;99.90;;;;;;5038107;28;20275;-70
2023/04/20 11:56:38;;;;;;;5.53;1.90;;;11.30;99.90;;;;;;5041465;28;20029;-71
2023/04/20 11:59:04;;;;;;;4.03;1.48;;;11.20;99.90;;;;;;5039639;28;20046;-69
2023/04/20 12:01:30;;;;;;;2.97;1.65;;;11.20;99.90;;;;;;5038069;28;20443;-72
2023/04/20 12:03:55;;;;;;;2.50;1.25;;;11.40;99.90;;;;;;5042196;28;20037;-72
2023/04/20 12:06:21;;;;;;;4.05;1.20;;;11.50;99.10;;;;;;5032941;28;20527;-70
2023/04/20 12:08:47;;;;;;;4.75;1.52;;;11.50;98.40;;;;;;5036328;28;20036;-70
2023/04/20 12:11:15;;;;;;;4.07;1.35;;;11.70;98.90;;;;;;5041746;28;20029;-70
2023/04/20 12:13:44;;;;;;;5.45;1.60;;;11.70;98.70;;;;;;5038577;28;20069;-70
2023/04/20 12:16:09;;;;;;;4.43;2.05;;;11.90;99.70;;;;;;5034519;28;20029;-70
2023/04/20 12:18:38;;;;;;;2.58;1.65;;;11.70;99.90;;;;;;5042638;28;20087;-69
2023/04/20 12:21:06;;;;;;;6.00;1.90;;;11.70;99.90;;;;;;5041493;28;20120;-70
2023/04/20 12:23:33;;;;;;;3.85;1.85;;;11.50;99.90;;;;;;5042279;28;20051;-71
2023/04/20 12:25:58;;;;;;;5.25;1.55;;;11.20;99.90;;;;;;5041220;28;20108;-72
2023/04/20 12:28:24;;;;;;;2.72;1.65;;;11.10;99.90;;;;;;5035906;28;20119;-72
2023/04/20 12:30:50;;;;;;;7.57;1.58;;;11.00;99.90;;;;;;5040349;28;20029;-70
2023/04/20 12:33:21;;;;;;;4.93;2.28;;;11.00;99.90;;;;;;5040384;28;20479;-71
2023/04/20 12:35:47;;;;;;;3.15;1.80;;;11.00;99.90;;;;;;5039252;28;20048;-71
2023/04/20 12:38:13;;;;;;;4.50;1.65;;;11.00;99.90;;;;;;5040443;28;20025;-69
2023/04/20 12:40:38;;;;;;;5.65;2.08;;;11.00;99.90;;;;;;5039223;28;20029;-70
2023/04/20 12:43:07;;;;;;;5.22;1.67;;;11.00;99.90;;;;;;5038268;28;20029;-70
2023/04/20 12:45:33;;;;;;;5.65;1.83;;;11.00;99.90;;;;;;5040904;28;20029;-70
2023/04/20 12:47:58;;;;;;;2.88;1.50;;;11.00;99.90;;;;;;5044890;28;20074;-72
2023/04/20 12:50:25;;;;;;;8.75;2.35;;;11.00;99.90;;;;;;5042508;28;20066;-70
2023/04/20 12:52:50;;;;;;;1.75;0.88;;;11.00;99.90;;;;;;5036554;28;20053;-70
2023/04/20 12:55:17;;;;;;;2.78;1.10;;;11.00;99.80;;;;;;5039826;28;20658;-72
2023/04/20 12:57:43;;;;;;;2.22;1.10;;;11.00;99.50;;;;;;5041576;28;20171;-71
2023/04/20 13:00:11;;;;;;;2.13;1.20;;;11.10;99.00;;;;;;5039179;28;20124;-71